Time;durP1;ratioP1;P1;durP2;ratioP2;P2;SDS_P1;SDS_P2;PMS_P1;PMS_P2;Temp;Humidity;BMP_temperature;BMP_pressure;BME280_temperature;BME280_humidity;BME280_pressure;Samples;Min_cycle;Max_cycle;Signal;HPM_P1;HPM_P2
2023/07/08 00:00:42;;;;;;;8.05;2.63;;;26.60;96.60;;;;;;5093094;28;20024;-78
2023/07/08 00:03:09;;;;;;;6.93;2.75;;;26.60;96.10;;;;;;5093339;28;20031;-79
2023/07/08 00:05:36;;;;;;;4.38;2.70;;;26.50;95.20;;;;;;5093292;28;20149;-79
2023/07/08 00:08:03;;;;;;;5.30;2.47;;;26.60;95.00;;;;;;5093515;28;20028;-80
2023/07/08 00:10:29;;;;;;;;;;;26.60;94.90;;;;;;5092693;28;20055;-79
2023/07/08 00:12:57;;;;;;;5.90;2.42;;;26.50;95.20;;;;;;5093245;28;19908;-79
2023/07/08 00:15:32;;;;;;;8.32;2.92;;;26.50;95.00;;;;;;5093064;28;20499;-80
2023/07/08 00:18:01;;;;;;;7.60;2.05;;;26.40;94.80;;;;;;5092972;28;20377;-80
2023/07/08 00:20:35;;;;;;;4.82;1.98;;;26.40;94.00;;;;;;5093079;28;20024;-80
2023/07/08 00:23:01;;;;;;;6.45;2.60;;;26.40;93.70;;;;;;5093673;28;20016;-80
2023/07/08 00:25:28;;;;;;;3.75;1.80;;;26.30;92.80;;;;;;5093109;28;20028;-80
2023/07/08 00:27:54;;;;;;;4.38;1.70;;;26.30;92.20;;;;;;5092984;28;20051;-80
2023/07/08 00:30:23;;;;;;;4.22;1.90;;;26.30;90.50;;;;;;5091620;28;20537;-80
2023/07/08 00:32:56;;;;;;;5.78;1.52;;;26.40;89.30;;;;;;5093088;28;20107;-80
2023/07/08 00:35:26;;;;;;;3.42;1.73;;;26.50;87.00;;;;;;5093333;28;20024;-81
2023/07/08 00:37:52;;;;;;;3.35;1.48;;;26.50;85.10;;;;;;5093455;28;20093;-80
2023/07/08 00:40:21;;;;;;;4.07;1.60;;;26.70;83.60;;;;;;5093472;28;20034;-79
2023/07/08 00:42:48;;;;;;;5.18;1.70;;;26.70;81.80;;;;;;5092903;28;20028;-80
2023/07/08 00:45:22;;;;;;;;;;;26.80;82.40;;;;;;5093069;28;20062;-80
2023/07/08 00:47:50;;;;;;;3.80;1.52;;;26.80;80.40;;;;;;5093384;28;19993;-79
2023/07/08 00:50:16;;;;;;;4.35;1.40;;;26.80;77.90;;;;;;5092863;28;20024;-81
2023/07/08 00:52:45;;;;;;;5.05;1.38;;;26.90;78.80;;;;;;5092788;28;20027;-79
2023/07/08 00:55:11;;;;;;;6.07;1.35;;;26.90;76.90;;;;;;5092702;28;20063;-81
2023/07/08 00:57:42;;;;;;;3.35;1.40;;;27.00;75.80;;;;;;5093199;28;20025;-80
2023/07/08 01:00:12;;;;;;;6.32;1.20;;;27.00;76.10;;;;;;5093020;28;20052;-80
2023/07/08 01:02:44;;;;;;;4.18;1.33;;;27.00;74.10;;;;;;5092727;28;20020;-81
2023/07/08 01:05:14;;;;;;;5.45;1.42;;;27.10;73.50;;;;;;5096521;28;20397;-81
2023/07/08 01:07:44;;;;;;;4.32;1.45;;;27.10;73.20;;;;;;5097026;28;20066;-80
2023/07/08 01:10:16;;;;;;;4.43;1.38;;;27.20;72.90;;;;;;5096620;28;20055;-80
2023/07/08 01:12:49;;;;;;;3.08;1.50;;;27.20;73.20;;;;;;5097134;28;20094;-80
2023/07/08 01:15:15;;;;;;;5.72;1.33;;;27.20;73.50;;;;;;5096722;28;20028;-81
2023/07/08 01:17:45;;;;;;;;;;;27.20;73.40;;;;;;5095315;28;20500;-80
2023/07/08 01:20:14;;;;;;;3.38;1.27;;;27.30;73.60;;;;;;5096937;28;20272;-81
2023/07/08 01:22:42;;;;;;;4.43;1.40;;;27.20;74.10;;;;;;5096902;28;20469;-80
2023/07/08 01:25:10;;;;;;;6.47;1.48;;;27.10;74.80;;;;;;5095068;28;20035;-80
2023/07/08 01:27:39;;;;;;;3.72;1.40;;;27.10;75.10;;;;;;5096857;28;20028;-80
2023/07/08 01:30:06;;;;;;;4.18;1.40;;;27.00;75.00;;;;;;5096611;28;20197;-80
2023/07/08 01:32:36;;;;;;;4.85;1.48;;;26.90;75.10;;;;;;5095934;28;20032;-80
2023/07/08 01:35:03;;;;;;;3.92;1.30;;;26.90;75.80;;;;;;5096754;28;20039;-79
2023/07/08 01:37:41;;;;;;;3.03;1.42;;;26.90;74.90;;;;;;5096141;28;20038;-79
2023/07/08 01:40:30;;;;;;;7.20;1.40;;;26.80;74.10;;;;;;5096009;28;20074;-79
2023/07/08 01:42:57;;;;;;;4.00;1.60;;;26.90;75.00;;;;;;5096325;28;20464;-79
2023/07/08 01:45:27;;;;;;;4.15;1.45;;;26.90;74.40;;;;;;5096274;28;20016;-79
2023/07/08 01:47:59;;;;;;;4.43;1.60;;;26.80;74.40;;;;;;5095971;28;20055;-79
2023/07/08 01:50:27;;;;;;;5.85;1.13;;;26.80;74.70;;;;;;5095903;28;20020;-79
2023/07/08 01:52:56;;;;;;;5.07;1.38;;;26.80;74.50;;;;;;5095817;28;20468;-79
2023/07/08 01:55:28;;;;;;;6.47;1.92;;;26.80;74.00;;;;;;5095850;28;20032;-79
2023/07/08 01:57:54;;;;;;;3.42;1.38;;;26.80;74.00;;;;;;5094586;28;20112;-79
2023/07/08 02:00:21;;;;;;;3.90;1.50;;;26.90;73.90;;;;;;5095705;28;20028;-79
2023/07/08 02:02:51;;;;;;;2.80;1.27;;;26.90;74.10;;;;;;5095712;28;20082;-79
2023/07/08 02:05:17;;;;;;;3.70;1.30;;;27.00;74.40;;;;;;5095506;28;20060;-79
2023/07/08 02:07:46;;;;;;;3.47;1.55;;;26.90;74.20;;;;;;5095817;28;20578;-80
2023/07/08 02:10:13;;;;;;;3.47;1.52;;;27.00;74.50;;;;;;5095943;28;20479;-79
2023/07/08 02:12:39;;;;;;;5.65;1.83;;;27.10;75.20;;;;;;5095881;28;20073;-79
2023/07/08 02:15:05;;;;;;;3.65;1.58;;;27.10;75.10;;;;;;5094491;28;20024;-79
2023/07/08 02:17:31;;;;;;;2.60;1.20;;;27.10;75.10;;;;;;5094977;28;20082;-79
2023/07/08 02:19:57;;;;;;;3.58;1.30;;;27.10;73.10;;;;;;5095458;28;20020;-80
2023/07/08 02:22:23;;;;;;;5.80;1.40;;;27.10;71.90;;;;;;5095900;28;20027;-79
2023/07/08 02:24:50;;;;;;;3.03;1.20;;;27.00;71.50;;;;;;5095454;28;20029;-79
2023/07/08 02:27:16;;;;;;;2.97;1.38;;;27.00;71.50;;;;;;5094035;28;20100;-79
2023/07/08 02:29:42;;;;;;;2.88;1.30;;;27.00;71.30;;;;;;5095503;28;20016;-79
2023/07/08 02:32:12;;;;;;;2.53;1.20;;;27.00;71.40;;;;;;5094825;28;20032;-80
2023/07/08 02:34:38;;;;;;;4.15;1.50;;;26.90;71.40;;;;;;5095472;28;20036;-79
2023/07/08 02:37:04;;;;;;;3.67;1.40;;;26.80;71.70;;;;;;5095489;28;20032;-78
2023/07/08 02:39:30;;;;;;;4.82;1.80;;;26.80;72.20;;;;;;5095491;28;20452;-80
2023/07/08 02:41:56;;;;;;;4.47;2.00;;;26.80;72.60;;;;;;5094921;28;20020;-79
2023/07/08 02:44:23;;;;;;;4.22;1.63;;;26.80;72.60;;;;;;5094960;28;20372;-79
2023/07/08 02:46:49;;;;;;;5.03;2.03;;;26.70;73.90;;;;;;5095370;28;20028;-78
2023/07/08 02:49:15;;;;;;;4.90;2.10;;;26.70;75.40;;;;;;5095237;28;20028;-79
2023/07/08 02:51:41;;;;;;;5.10;2.05;;;26.60;76.90;;;;;;5095464;28;20024;-79
2023/07/08 02:54:07;;;;;;;4.80;2.17;;;26.60;77.30;;;;;;5094692;28;20468;-79
2023/07/08 02:56:33;;;;;;;5.20;1.92;;;26.50;78.90;;;;;;5093276;28;20027;-79
2023/07/08 02:58:59;;;;;;;5.47;1.75;;;26.50;79.50;;;;;;5094918;28;20028;-79
2023/07/08 03:01:26;;;;;;;3.22;1.80;;;26.40;79.40;;;;;;5094580;28;20102;-81
2023/07/08 03:03:56;;;;;;;5.25;2.20;;;26.40;78.60;;;;;;5094491;28;20054;-79
2023/07/08 03:06:22;;;;;;;4.82;2.00;;;26.40;78.20;;;;;;5095596;28;20234;-79
2023/07/08 03:08:48;;;;;;;5.05;2.40;;;26.50;78.10;;;;;;5095013;28;20034;-80
2023/07/08 03:11:14;;;;;;;5.75;2.53;;;26.50;78.50;;;;;;5094419;28;20107;-80
2023/07/08 03:13:40;;;;;;;4.80;2.30;;;26.50;78.70;;;;;;5094453;28;20082;-80
2023/07/08 03:16:12;;;;;;;6.68;2.50;;;26.50;78.60;;;;;;5094442;28;20019;-79
2023/07/08 03:18:45;;;;;;;5.10;2.45;;;26.60;78.00;;;;;;5094385;28;20040;-80
2023/07/08 03:21:12;;;;;;;4.47;2.20;;;26.60;77.00;;;;;;5093043;28;20060;-79
2023/07/08 03:23:39;;;;;;;3.83;2.20;;;26.80;75.90;;;;;;5094750;28;20024;-79
2023/07/08 03:26:05;;;;;;;6.35;1.85;;;26.80;75.10;;;;;;5094131;28;20035;-79
2023/07/08 03:28:31;;;;;;;4.90;2.00;;;26.90;74.40;;;;;;5094541;28;20024;-79
2023/07/08 03:30:57;;;;;;;;;;;27.00;73.00;;;;;;5094576;28;20028;-79
2023/07/08 03:33:23;;;;;;;;;;;27.10;73.30;;;;;;5094751;28;19919;-79
2023/07/08 03:35:49;;;;;;;;;;;27.10;74.00;;;;;;5094620;28;20383;-79
2023/07/08 03:38:16;;;;;;;3.45;1.70;;;27.10;74.30;;;;;;5094498;28;19904;-79
2023/07/08 03:40:42;;;;;;;;;;;27.10;74.00;;;;;;5094319;28;20024;-79
2023/07/08 03:43:07;;;;;;;;;;;27.10;73.20;;;;;;5094231;28;19926;-79
2023/07/08 03:45:34;;;;;;;5.25;2.10;;;27.10;73.10;;;;;;5093663;28;20076;-79
2023/07/08 03:48:00;;;;;;;7.28;3.15;;;27.10;74.10;;;;;;5093993;28;20460;-79
2023/07/08 03:50:27;;;;;;;4.80;2.10;;;27.10;75.10;;;;;;5093683;28;20024;-80
2023/07/08 03:52:55;;;;;;;8.65;2.65;;;27.10;75.10;;;;;;5093578;28;20093;-79
2023/07/08 03:55:21;;;;;;;5.78;2.15;;;26.90;75.00;;;;;;5093738;28;20043;-79
2023/07/08 03:57:47;;;;;;;5.72;2.08;;;27.10;73.90;;;;;;5093608;28;20025;-80
2023/07/08 04:00:14;;;;;;;5.03;2.10;;;27.10;74.00;;;;;;5093472;28;20480;-80
2023/07/08 04:02:42;;;;;;;8.95;2.17;;;27.10;74.80;;;;;;5093338;28;20020;-79
2023/07/08 04:05:19;;;;;;;6.57;2.20;;;27.00;73.30;;;;;;5093455;28;20430;-79
2023/07/08 04:07:46;;;;;;;3.88;1.95;;;27.00;74.50;;;;;;5093874;28;20035;-79
2023/07/08 04:10:12;;;;;;;5.13;1.80;;;27.00;74.70;;;;;;5093540;28;20031;-79
2023/07/08 04:12:39;;;;;;;9.07;2.17;;;27.10;74.60;;;;;;5093685;28;20028;-80
2023/07/08 04:15:08;;;;;;;7.05;2.13;;;27.10;75.10;;;;;;5093323;28;20479;-80
2023/07/08 04:17:42;;;;;;;6.40;2.03;;;27.00;75.60;;;;;;5092922;28;20085;-79
2023/07/08 04:20:10;;;;;;;8.18;2.05;;;27.00;75.80;;;;;;5093494;28;20479;-79
2023/07/08 04:22:37;;;;;;;5.57;1.85;;;27.10;76.20;;;;;;5093114;28;20125;-79
2023/07/08 04:25:04;;;;;;;8.32;2.20;;;27.20;76.50;;;;;;5093620;28;20423;-80
2023/07/08 04:27:30;;;;;;;8.68;2.20;;;27.30;76.70;;;;;;5093526;28;20452;-80
2023/07/08 04:29:56;;;;;;;5.50;2.25;;;27.40;76.60;;;;;;5093063;28;20485;-80
2023/07/08 04:32:25;;;;;;;4.07;2.10;;;27.50;76.30;;;;;;5091439;28;20020;-80
2023/07/08 04:34:52;;;;;;;7.35;2.25;;;27.60;75.60;;;;;;5092896;28;20089;-80
2023/07/08 04:37:19;;;;;;;7.50;2.40;;;27.80;75.60;;;;;;5092909;28;20040;-79
2023/07/08 04:39:45;;;;;;;4.15;1.70;;;27.90;75.20;;;;;;5092464;28;20110;-79
2023/07/08 04:42:17;;;;;;;5.68;1.55;;;28.00;73.50;;;;;;5093333;28;20349;-80
2023/07/08 04:44:44;;;;;;;3.50;1.58;;;28.00;73.00;;;;;;5092924;28;20529;-80
2023/07/08 04:47:12;;;;;;;;;;;27.90;73.00;;;;;;5093247;28;20031;-79
2023/07/08 04:49:38;;;;;;;6.05;2.03;;;27.90;73.20;;;;;;5093418;28;19911;-79
2023/07/08 04:52:04;;;;;;;6.07;1.70;;;27.80;72.50;;;;;;5092780;28;20027;-79
2023/07/08 04:54:30;;;;;;;9.68;2.08;;;27.80;73.00;;;;;;5093208;28;20032;-80
2023/07/08 04:56:56;;;;;;;4.43;1.67;;;27.90;73.10;;;;;;5092661;28;20032;-79
2023/07/08 04:59:24;;;;;;;5.90;2.00;;;28.00;72.70;;;;;;5092741;28;20206;-79
2023/07/08 05:01:54;;;;;;;6.03;1.60;;;28.10;72.60;;;;;;5092448;28;20020;-79
2023/07/08 05:04:22;;;;;;;8.07;1.70;;;28.30;72.70;;;;;;5093017;28;20030;-80
2023/07/08 05:06:49;;;;;;;3.53;1.80;;;28.70;73.30;;;;;;5093127;28;20066;-81
2023/07/08 05:09:15;;;;;;;4.80;1.73;;;29.40;72.50;;;;;;5093044;28;20036;-79
2023/07/08 05:11:41;;;;;;;8.48;1.92;;;30.30;71.60;;;;;;5092635;28;20024;-79
2023/07/08 05:14:07;;;;;;;8.07;1.90;;;30.80;70.80;;;;;;5092735;28;20534;-80
2023/07/08 05:16:35;;;;;;;6.03;1.90;;;31.20;70.00;;;;;;5092475;28;20096;-80
2023/07/08 05:19:02;;;;;;;4.93;1.88;;;31.80;68.70;;;;;;5093369;28;20065;-80
2023/07/08 05:21:33;;;;;;;5.30;1.55;;;31.90;67.70;;;;;;5092648;28;20028;-80
2023/07/08 05:24:00;;;;;;;4.80;1.70;;;32.50;67.70;;;;;;5092994;28;20097;-80
2023/07/08 05:26:26;;;;;;;4.75;1.63;;;32.40;67.90;;;;;;5092587;28;20020;-80
2023/07/08 05:28:52;;;;;;;7.15;1.52;;;32.40;67.60;;;;;;5093161;28;20472;-81
2023/07/08 05:31:18;;;;;;;5.93;1.67;;;32.00;67.90;;;;;;5092527;28;20021;-80
2023/07/08 05:33:44;;;;;;;;;;;31.50;68.60;;;;;;5092889;28;20039;-81
2023/07/08 05:36:10;;;;;;;5.65;1.70;;;31.40;68.30;;;;;;5093110;28;19942;-80
2023/07/08 05:38:36;;;;;;;;;;;31.70;67.70;;;;;;5093533;28;20032;-81
2023/07/08 05:41:02;;;;;;;10.70;2.17;;;32.00;67.60;;;;;;5092523;28;20007;-80
2023/07/08 05:43:28;;;;;;;5.20;1.75;;;32.20;67.20;;;;;;5092716;28;20059;-79
2023/07/08 05:45:58;;;;;;;;;;;32.30;66.70;;;;;;5092528;28;20024;-79
2023/07/08 05:48:24;;;;;;;4.78;1.75;;;32.50;66.30;;;;;;5092237;28;19964;-79
2023/07/08 05:50:50;;;;;;;;;;;32.20;66.80;;;;;;5095454;28;20020;-79
2023/07/08 05:53:19;;;;;;;11.00;1.90;;;32.10;67.00;;;;;;5095845;28;20321;-79
2023/07/08 05:55:47;;;;;;;6.90;2.20;;;32.70;66.90;;;;;;5094668;28;20119;-79
2023/07/08 05:58:15;;;;;;;6.70;1.77;;;32.70;66.50;;;;;;5095690;28;20024;-80
2023/07/08 06:00:42;;;;;;;4.95;1.90;;;32.40;67.10;;;;;;5094206;28;20190;-79
2023/07/08 06:03:09;;;;;;;4.55;1.95;;;33.50;66.10;;;;;;5095922;28;20040;-81
2023/07/08 06:05:37;;;;;;;4.43;1.80;;;33.80;65.20;;;;;;5096401;28;20027;-80
2023/07/08 06:08:03;;;;;;;7.43;2.08;;;34.40;64.30;;;;;;5095702;28;20449;-79
2023/07/08 06:10:29;;;;;;;7.05;1.90;;;34.40;63.90;;;;;;5095424;28;20103;-79
2023/07/08 06:12:55;;;;;;;;;;;35.20;63.30;;;;;;5095551;28;20111;-80
2023/07/08 06:15:21;;;;;;;8.50;1.85;;;35.90;61.90;;;;;;5095620;28;20053;-79
2023/07/08 06:17:47;;;;;;;4.32;1.70;;;36.10;61.80;;;;;;5094925;28;20092;-80
2023/07/08 06:20:13;;;;;;;6.70;1.90;;;36.50;60.70;;;;;;5095327;28;20024;-80
2023/07/08 06:22:39;;;;;;;6.93;2.03;;;37.00;60.90;;;;;;5095598;28;20028;-80
2023/07/08 06:25:06;;;;;;;7.22;1.85;;;36.70;60.80;;;;;;5095275;28;20031;-81
2023/07/08 06:27:33;;;;;;;7.03;1.77;;;37.50;60.30;;;;;;5095118;28;20032;-80
2023/07/08 06:29:59;;;;;;;7.65;1.88;;;38.00;58.90;;;;;;5093739;28;20503;-79
2023/07/08 06:32:25;;;;;;;6.43;2.00;;;38.60;58.60;;;;;;5094741;28;20032;-80
2023/07/08 06:34:51;;;;;;;10.48;2.50;;;39.60;58.00;;;;;;5095462;28;20032;-80
2023/07/08 06:37:17;;;;;;;6.72;2.30;;;39.00;58.30;;;;;;5095338;28;20022;-79
2023/07/08 06:39:43;;;;;;;12.27;2.50;;;37.80;59.80;;;;;;5093602;28;20489;-80
2023/07/08 06:42:09;;;;;;;9.55;2.22;;;38.10;59.70;;;;;;5094988;28;20019;-80
2023/07/08 06:44:37;;;;;;;9.93;2.47;;;38.60;58.60;;;;;;5093543;28;20368;-79
2023/07/08 06:47:03;;;;;;;8.25;2.28;;;37.90;58.10;;;;;;5094739;28;20032;-82
2023/07/08 06:49:30;;;;;;;6.95;1.90;;;38.10;58.50;;;;;;5095135;28;20027;-81
2023/07/08 06:51:59;;;;;;;6.50;1.80;;;38.30;56.90;;;;;;5094510;28;20056;-79
2023/07/08 06:54:27;;;;;;;5.25;2.00;;;38.90;57.60;;;;;;5094203;28;20036;-80
2023/07/08 06:56:53;;;;;;;6.55;2.13;;;38.70;57.70;;;;;;5094477;28;20032;-80
2023/07/08 06:59:19;;;;;;;6.43;1.83;;;39.70;56.90;;;;;;5094718;28;20100;-80
2023/07/08 07:01:45;;;;;;;8.23;2.10;;;40.20;55.70;;;;;;5093756;28;20028;-80
2023/07/08 07:04:11;;;;;;;6.18;1.75;;;41.40;54.60;;;;;;5093444;28;20028;-83
2023/07/08 07:06:37;;;;;;;5.20;2.10;;;42.10;54.10;;;;;;5093179;28;20028;-81
2023/07/08 07:09:03;;;;;;;8.32;2.08;;;42.70;53.00;;;;;;5095172;28;20061;-81
2023/07/08 07:11:29;;;;;;;12.60;2.00;;;42.50;52.60;;;;;;5094954;28;20465;-81
2023/07/08 07:13:55;;;;;;;12.80;4.10;;;42.80;52.70;;;;;;5094279;28;20032;-82
2023/07/08 07:16:22;;;;;;;5.80;2.20;;;43.50;52.80;;;;;;5094376;28;20071;-81
2023/07/08 07:18:49;;;;;;;14.13;2.33;;;43.60;52.00;;;;;;5094906;28;20032;-82
2023/07/08 07:21:16;;;;;;;8.18;1.98;;;43.80;51.80;;;;;;5094351;28;20028;-81
2023/07/08 07:23:42;;;;;;;7.15;1.88;;;43.20;51.20;;;;;;5094301;28;20062;-81
2023/07/08 07:26:09;;;;;;;5.82;1.90;;;43.00;51.30;;;;;;5094133;28;20089;-82
2023/07/08 07:28:35;;;;;;;7.50;2.35;;;43.30;51.10;;;;;;5094238;28;20487;-81
2023/07/08 07:31:02;;;;;;;6.88;2.38;;;42.70;50.50;;;;;;5092537;28;20120;-81
2023/07/08 07:33:28;;;;;;;6.63;2.10;;;42.00;50.80;;;;;;5093885;28;20036;-80
2023/07/08 07:35:54;;;;;;;11.82;2.30;;;41.70;49.70;;;;;;5093910;28;20112;-81
2023/07/08 07:38:20;;;;;;;4.63;2.10;;;41.40;49.40;;;;;;5094030;28;20024;-81
2023/07/08 07:40:46;;;;;;;11.45;2.67;;;40.50;49.60;;;;;;5094196;28;20016;-81
2023/07/08 07:43:12;;;;;;;8.00;2.90;;;39.90;49.50;;;;;;5093704;28;20030;-81
2023/07/08 07:45:39;;;;;;;9.18;2.72;;;39.10;49.30;;;;;;5094234;28;20095;-81
2023/07/08 07:48:05;;;;;;;9.05;2.40;;;38.50;50.60;;;;;;5093356;28;20028;-81
2023/07/08 07:50:31;;;;;;;10.57;2.50;;;38.40;50.60;;;;;;5093573;28;20074;-82
2023/07/08 07:52:57;;;;;;;8.00;2.80;;;37.90;52.40;;;;;;5093375;28;20384;-82
2023/07/08 07:55:23;;;;;;;6.90;2.58;;;38.00;52.40;;;;;;5093828;28;20464;-79
2023/07/08 07:57:49;;;;;;;5.35;2.28;;;38.10;52.50;;;;;;5093496;28;20016;-81
2023/07/08 08:00:15;;;;;;;11.10;2.60;;;38.10;51.90;;;;;;5093523;28;20380;-81
2023/07/08 08:02:42;;;;;;;10.65;2.63;;;37.60;51.90;;;;;;5093903;28;20024;-82
2023/07/08 08:05:08;;;;;;;22.05;3.20;;;38.00;53.80;;;;;;5093592;28;20024;-83
2023/07/08 08:07:36;;;;;;;10.02;3.33;;;37.60;54.50;;;;;;5091857;28;20119;-81
2023/07/08 08:10:02;;;;;;;12.13;3.20;;;38.10;54.30;;;;;;5093597;28;20016;-81
2023/07/08 08:12:29;;;;;;;10.43;2.78;;;37.90;55.00;;;;;;5091610;28;20098;-81
2023/07/08 08:14:55;;;;;;;9.38;2.70;;;37.00;55.20;;;;;;5092630;28;20039;-80
2023/07/08 08:17:23;;;;;;;13.18;3.60;;;36.30;55.20;;;;;;5092878;28;20427;-81
2023/07/08 08:19:49;;;;;;;13.85;3.33;;;36.10;56.70;;;;;;5093433;28;20027;-79
2023/07/08 08:22:16;;;;;;;13.82;3.58;;;35.90;57.90;;;;;;5092988;28;20032;-79
2023/07/08 08:24:42;;;;;;;16.52;3.95;;;35.60;58.90;;;;;;5091559;28;20021;-80
2023/07/08 08:27:08;;;;;;;17.45;3.63;;;35.60;60.50;;;;;;5091639;28;20028;-79
2023/07/08 08:29:34;;;;;;;12.15;3.97;;;35.40;61.00;;;;;;5093006;28;20031;-81
2023/07/08 08:32:00;;;;;;;15.35;3.85;;;35.20;62.20;;;;;;5092714;28;20028;-80
2023/07/08 08:34:29;;;;;;;13.18;4.05;;;35.20;62.90;;;;;;5091438;28;20036;-80
2023/07/08 08:36:55;;;;;;;21.98;4.53;;;35.20;63.50;;;;;;5091676;28;20487;-78
2023/07/08 08:39:22;;;;;;;33.25;4.97;;;35.20;63.60;;;;;;5091396;28;20028;-80
2023/07/08 08:41:53;;;;;;;22.00;3.92;;;35.40;65.30;;;;;;5093118;28;20020;-81
2023/07/08 08:44:32;;;;;;;15.63;3.70;;;35.80;65.80;;;;;;5093250;28;20023;-81
2023/07/08 08:47:21;;;;;;;19.73;4.22;;;36.10;65.40;;;;;;5091543;28;20460;-80
2023/07/08 08:49:56;;;;;;;28.10;5.18;;;36.50;64.40;;;;;;5093034;28;20082;-80
2023/07/08 08:52:22;;;;;;;19.17;4.75;;;36.70;64.20;;;;;;5093203;28;20088;-80
2023/07/08 08:54:51;;;;;;;14.38;4.43;;;37.20;62.70;;;;;;5093256;28;20032;-81
2023/07/08 08:57:42;;;;;;;8.07;4.03;;;36.80;61.60;;;;;;5091533;28;20024;-80
2023/07/08 09:00:12;;;;;;;9.25;3.80;;;36.80;60.20;;;;;;5093139;28;20028;-81
2023/07/08 09:02:53;;;;;;;9.95;3.47;;;36.60;60.30;;;;;;5092844;28;20024;-81
2023/07/08 09:05:20;;;;;;;9.68;3.67;;;36.50;59.00;;;;;;5092877;28;20464;-80
2023/07/08 09:08:07;;;;;;;9.65;4.07;;;36.60;60.40;;;;;;5092826;28;20032;-81
2023/07/08 09:11:01;;;;;;;14.95;3.97;;;36.80;61.40;;;;;;5093311;28;20453;-80
2023/07/08 09:13:35;;;;;;;15.23;4.03;;;36.80;62.30;;;;;;5093430;28;20052;-80
2023/07/08 09:16:34;;;;;;;10.32;4.20;;;37.20;61.50;;;;;;5092942;28;20417;-80
2023/07/08 09:19:06;;;;;;;8.70;4.03;;;37.00;61.50;;;;;;5093382;28;20496;-81
2023/07/08 09:21:50;;;;;;;14.48;3.72;;;37.40;60.10;;;;;;5093226;28;20020;-78
2023/07/08 09:24:40;;;;;;;8.50;3.17;;;37.20;59.40;;;;;;5093360;28;20020;-78
2023/07/08 09:27:06;;;;;;;6.30;3.05;;;36.80;59.40;;;;;;5096666;28;20052;-79
2023/07/08 09:29:33;;;;;;;10.52;2.97;;;36.80;59.20;;;;;;5095038;28;20484;-81
2023/07/08 09:32:01;;;;;;;6.85;2.65;;;37.10;56.70;;;;;;5096699;28;20016;-81
2023/07/08 09:34:43;;;;;;;10.00;2.67;;;36.80;58.50;;;;;;5096332;28;20036;-81
2023/07/08 09:37:30;;;;;;;6.00;2.50;;;36.80;59.50;;;;;;5096856;28;20099;-81
2023/07/08 09:39:59;;;;;;;7.97;2.75;;;36.70;57.10;;;;;;5095170;28;20085;-81
2023/07/08 09:42:34;;;;;;;7.28;2.40;;;36.50;57.50;;;;;;5095571;28;20027;-81
2023/07/08 09:45:10;;;;;;;5.70;2.30;;;36.90;56.10;;;;;;5096231;28;20024;-82
2023/07/08 09:47:37;;;;;;;9.88;2.58;;;36.30;55.90;;;;;;5096010;28;20047;-81
2023/07/08 09:50:15;;;;;;;12.57;2.70;;;36.30;56.20;;;;;;5094650;28;20036;-81
2023/07/08 09:52:41;;;;;;;9.63;2.65;;;36.70;57.60;;;;;;5096300;28;20099;-81
2023/07/08 09:55:14;;;;;;;5.50;2.25;;;36.70;57.60;;;;;;5095846;28;20024;-81
2023/07/08 09:57:40;;;;;;;5.40;2.35;;;36.30;60.40;;;;;;5095935;28;20476;-80
2023/07/08 10:00:15;;;;;;;7.57;2.58;;;35.60;57.80;;;;;;5095549;28;20031;-81
2023/07/08 10:02:57;;;;;;;8.50;2.53;;;35.70;58.40;;;;;;5095481;28;20426;-81
2023/07/08 10:05:31;;;;;;;7.07;2.45;;;35.90;59.00;;;;;;5095774;28;20039;-81
2023/07/08 10:07:58;;;;;;;7.40;2.30;;;35.80;59.30;;;;;;5096025;28;20402;-81
2023/07/08 10:10:36;;;;;;;7.35;2.30;;;36.00;59.60;;;;;;5095709;28;20117;-81
2023/07/08 10:13:43;;;;;;;8.80;2.40;;;35.60;59.90;;;;;;5095848;28;20085;-80
2023/07/08 10:16:28;;;;;;;7.50;2.55;;;35.10;59.80;;;;;;5052900;28;20063;-79
2023/07/08 10:18:54;;;;;;;5.57;2.22;;;35.40;60.10;;;;;;5036231;28;20571;-80
2023/07/08 10:21:23;;;;;;;5.75;2.47;;;35.60;58.80;;;;;;5053195;28;20095;-80
2023/07/08 10:24:02;;;;;;;4.70;2.10;;;35.80;58.70;;;;;;5052980;28;20034;-79
2023/07/08 10:26:31;;;;;;;7.32;2.30;;;35.70;58.00;;;;;;5053119;28;20029;-79
2023/07/08 10:29:18;;;;;;;6.13;2.30;;;35.50;59.10;;;;;;5052444;28;20029;-79
2023/07/08 10:32:20;;;;;;;4.53;2.08;;;35.20;59.50;;;;;;5052538;28;20048;-79
2023/07/08 10:35:07;;;;;;;4.60;2.03;;;35.30;57.50;;;;;;5049583;28;20044;-80
2023/07/08 10:37:54;;;;;;;7.30;2.40;;;35.00;58.30;;;;;;5052031;28;20049;-81
2023/07/08 10:40:45;;;;;;;8.05;2.40;;;34.70;58.00;;;;;;5053108;28;20032;-81
2023/07/08 10:43:44;;;;;;;5.88;2.20;;;35.00;57.00;;;;;;5035920;28;20408;-79
2023/07/08 10:46:16;;;;;;;7.95;2.55;;;34.90;57.60;;;;;;5061380;28;20362;-81
2023/07/08 10:48:52;;;;;;;10.40;2.60;;;35.10;59.60;;;;;;5095327;28;20032;-81
2023/07/08 10:51:47;;;;;;;8.32;2.60;;;35.10;60.60;;;;;;5095036;28;20032;-82
2023/07/08 10:54:31;;;;;;;;;;;35.10;62.30;;;;;;5058034;28;20052;-83
2023/07/08 10:57:30;;;;;;;5.25;2.15;;;35.30;60.90;;;;;;5095260;28;19911;-82
2023/07/08 11:00:26;;;;;;;9.05;2.17;;;36.00;59.00;;;;;;5073080;28;20031;-81
2023/07/08 11:03:50;;;;;;;5.32;2.58;;;35.60;58.00;;;;;;5094258;28;20024;-81
2023/07/08 11:06:39;;;;;;;7.55;2.70;;;35.70;57.50;;;;;;5036776;28;20591;-81
2023/07/08 11:09:15;;;;;;;6.43;2.22;;;35.40;57.80;;;;;;5052738;28;20074;-81
2023/07/08 11:12:00;;;;;;;7.30;2.67;;;35.90;58.70;;;;;;5052832;28;20040;-81
2023/07/08 11:14:46;;;;;;;6.43;2.60;;;36.10;57.70;;;;;;5052175;28;20040;-81
2023/07/08 11:17:30;;;;;;;4.78;2.30;;;36.00;57.20;;;;;;5051974;28;20044;-80
2023/07/08 11:20:20;;;;;;;7.18;2.10;;;35.60;57.70;;;;;;5052445;28;20067;-79
2023/07/08 11:22:54;;;;;;;6.18;2.53;;;35.80;57.50;;;;;;5052549;28;20072;-79
2023/07/08 11:25:24;;;;;;;12.57;2.90;;;36.00;55.10;;;;;;5052155;28;20064;-80
2023/07/08 11:27:55;;;;;;;5.00;2.92;;;36.10;54.40;;;;;;5051840;28;20037;-80
2023/07/08 11:30:32;;;;;;;19.52;11.43;;;35.80;55.20;;;;;;5051979;28;20059;-79
2023/07/08 11:33:04;;;;;;;25.65;15.30;;;35.90;54.20;;;;;;5051551;28;20056;-80
2023/07/08 11:35:48;;;;;;;31.30;4.05;;;36.10;55.40;;;;;;5034874;28;20041;-80
2023/07/08 11:38:17;;;;;;;9.40;2.85;;;35.40;55.60;;;;;;5051869;28;20025;-80
2023/07/08 11:40:56;;;;;;;11.18;4.60;;;35.20;56.50;;;;;;5060535;28;20035;-80
2023/07/08 11:43:25;;;;;;;11.25;4.63;;;35.10;57.40;;;;;;5093798;28;20107;-80
2023/07/08 11:45:56;;;;;;;7.32;3.17;;;35.40;56.80;;;;;;5094262;28;20032;-81
2023/07/08 11:48:30;;;;;;;9.20;4.25;;;35.20;57.10;;;;;;5092511;28;20028;-81
2023/07/08 11:51:05;;;;;;;7.53;3.65;;;35.10;58.30;;;;;;5094594;28;20103;-81
2023/07/08 11:53:46;;;;;;;7.75;3.05;;;35.10;60.50;;;;;;5093472;28;20032;-81
2023/07/08 11:56:15;;;;;;;9.38;3.13;;;35.10;61.20;;;;;;5094682;28;20073;-81
2023/07/08 11:58:52;;;;;;;10.20;3.30;;;35.30;61.50;;;;;;5094797;28;20071;-82
2023/07/08 12:01:30;;;;;;;23.13;3.58;;;35.00;60.20;;;;;;5093727;28;20024;-81
2023/07/08 12:04:16;;;;;;;8.13;3.88;;;34.60;59.20;;;;;;5094086;28;20056;-80
2023/07/08 12:06:47;;;;;;;7.18;2.95;;;34.60;62.50;;;;;;5093928;28;20024;-81
2023/07/08 12:09:25;;;;;;;10.70;3.05;;;34.50;62.90;;;;;;5093802;28;20027;-81
2023/07/08 12:11:56;;;;;;;6.43;3.10;;;34.30;62.90;;;;;;5093608;28;20485;-81
2023/07/08 12:14:23;;;;;;;7.63;3.20;;;34.30;65.00;;;;;;5091966;28;20069;-81
2023/07/08 12:16:49;;;;;;;7.88;3.13;;;34.00;64.20;;;;;;5093410;28;20044;-80
2023/07/08 12:19:18;;;;;;;5.93;2.60;;;34.10;63.70;;;;;;5093541;28;20074;-82
2023/07/08 12:21:44;;;;;;;5.15;2.60;;;34.30;63.00;;;;;;5093604;28;20100;-80
2023/07/08 12:24:13;;;;;;;15.98;2.92;;;34.00;63.20;;;;;;5093215;28;20055;-81
2023/07/08 12:26:41;;;;;;;7.13;2.63;;;33.90;64.60;;;;;;5093332;28;20602;-81
2023/07/08 12:29:13;;;;;;;6.28;2.47;;;34.30;63.20;;;;;;5093793;28;20028;-80
2023/07/08 12:31:42;;;;;;;6.80;2.80;;;34.00;65.60;;;;;;5093355;28;20016;-81
2023/07/08 12:34:14;;;;;;;4.82;2.50;;;34.20;64.10;;;;;;5093643;28;20153;-82
2023/07/08 12:36:47;;;;;;;8.75;2.67;;;34.20;63.60;;;;;;5093882;28;20023;-82
2023/07/08 12:39:16;;;;;;;8.32;2.70;;;34.00;63.70;;;;;;5094416;28;20085;-81
2023/07/08 12:41:44;;;;;;;6.53;2.90;;;34.30;63.40;;;;;;5093007;28;20028;-82
2023/07/08 12:44:23;;;;;;;5.32;2.60;;;34.30;64.00;;;;;;5093480;28;20023;-82
2023/07/08 12:46:52;;;;;;;6.88;3.00;;;34.50;62.30;;;;;;5094271;28;20032;-82
2023/07/08 12:49:19;;;;;;;5.90;2.53;;;34.70;62.60;;;;;;5092968;28;20048;-83
2023/07/08 12:51:46;;;;;;;5.68;2.60;;;34.60;63.00;;;;;;5093219;28;20032;-82
2023/07/08 12:54:13;;;;;;;5.32;2.70;;;34.60;63.20;;;;;;5091723;28;20046;-82
2023/07/08 12:56:45;;;;;;;6.82;2.45;;;34.80;64.00;;;;;;5091677;28;20347;-83
2023/07/08 12:59:18;;;;;;;8.43;2.83;;;35.00;62.90;;;;;;5093170;28;20020;-82
2023/07/08 13:01:47;;;;;;;5.53;2.40;;;35.40;62.90;;;;;;5097261;28;20024;-82
2023/07/08 13:04:14;;;;;;;4.47;2.20;;;35.40;62.00;;;;;;5095538;28;20032;-82